sensor_id;sensor_type;location;lat;lon;timestamp;temperature;humidity
17994;DHT22;9122;48.406;9.984;2024-03-23T00:56:59;13.30;79.90
17994;DHT22;9122;48.406;9.984;2024-03-23T01:02:28;13.20;80.00
17994;DHT22;9122;48.406;9.984;2024-03-23T01:07:56;13.20;80.50
17994;DHT22;9122;48.406;9.984;2024-03-23T01:10:40;13.10;81.30
17994;DHT22;9122;48.406;9.984;2024-03-23T01:16:10;13.10;80.90
17994;DHT22;9122;48.406;9.984;2024-03-23T01:18:54;13.10;81.70
17994;DHT22;9122;48.406;9.984;2024-03-23T01:21:38;13.10;81.70
17994;DHT22;9122;48.406;9.984;2024-03-23T01:24:22;13.10;82.20
17994;DHT22;9122;48.406;9.984;2024-03-23T01:27:06;13.00;81.90
17994;DHT22;9122;48.406;9.984;2024-03-23T01:29:51;13.00;82.00
17994;DHT22;9122;48.406;9.984;2024-03-23T01:32:36;13.00;82.20
17994;DHT22;9122;48.406;9.984;2024-03-23T01:35:21;13.00;82.10
17994;DHT22;9122;48.406;9.984;2024-03-23T01:38:05;13.80;82.60
17994;DHT22;9122;48.406;9.984;2024-03-23T01:40:55;13.00;82.10
17994;DHT22;9122;48.406;9.984;2024-03-23T01:43:40;13.00;82.30
17994;DHT22;9122;48.406;9.984;2024-03-23T01:46:25;13.00;82.50
17994;DHT22;9122;48.406;9.984;2024-03-23T01:49:09;13.10;82.60
17994;DHT22;9122;48.406;9.984;2024-03-23T01:51:53;12.90;82.50
17994;DHT22;9122;48.406;9.984;2024-03-23T01:54:38;13.00;82.70
17994;DHT22;9122;48.406;9.984;2024-03-23T02:00:08;12.90;82.10
17994;DHT22;9122;48.406;9.984;2024-03-23T02:02:54;12.90;82.90
17994;DHT22;9122;48.406;9.984;2024-03-23T02:05:38;12.90;83.00
17994;DHT22;9122;48.406;9.984;2024-03-23T02:08:23;12.90;83.20
17994;DHT22;9122;48.406;9.984;2024-03-23T02:11:08;12.90;83.50
17994;DHT22;9122;48.406;9.984;2024-03-23T02:13:52;12.90;98.50
17994;DHT22;9122;48.406;9.984;2024-03-23T02:16:36;12.80;83.90
17994;DHT22;9122;48.406;9.984;2024-03-23T02:19:20;12.80;84.20
17994;DHT22;9122;48.406;9.984;2024-03-23T02:22:05;12.80;84.50
17994;DHT22;9122;48.406;9.984;2024-03-23T02:24:49;12.70;84.70
17994;DHT22;9122;48.406;9.984;2024-03-23T02:27:33;12.70;98.90
17994;DHT22;9122;48.406;9.984;2024-03-23T02:30:20;12.70;85.10
17994;DHT22;9122;48.406;9.984;2024-03-23T02:33:05;12.70;85.20
17994;DHT22;9122;48.406;9.984;2024-03-23T02:35:49;12.70;85.40
17994;DHT22;9122;48.406;9.984;2024-03-23T02:38:33;12.70;85.60
17994;DHT22;9122;48.406;9.984;2024-03-23T02:41:17;12.70;85.60
17994;DHT22;9122;48.406;9.984;2024-03-23T02:46:53;12.80;85.00
17994;DHT22;9122;48.406;9.984;2024-03-23T02:52:21;12.80;85.20
17994;DHT22;9122;48.406;9.984;2024-03-23T02:55:06;12.80;86.00
17994;DHT22;9122;48.406;9.984;2024-03-23T02:57:51;12.80;86.00
17994;DHT22;9122;48.406;9.984;2024-03-23T03:00:35;12.80;86.10
17994;DHT22;9122;48.406;9.984;2024-03-23T03:03:19;12.70;86.00
17994;DHT22;9122;48.406;9.984;2024-03-23T03:06:03;12.70;86.00
17994;DHT22;9122;48.406;9.984;2024-03-23T03:08:47;12.70;86.10
17994;DHT22;9122;48.406;9.984;2024-03-23T03:11:32;12.70;86.20
17994;DHT22;9122;48.406;9.984;2024-03-23T03:14:16;12.70;86.30
17994;DHT22;9122;48.406;9.984;2024-03-23T03:17:00;12.70;99.70
17994;DHT22;9122;48.406;9.984;2024-03-23T03:19:45;12.30;86.20
17994;DHT22;9122;48.406;9.984;2024-03-23T03:27:58;12.70;85.90
17994;DHT22;9122;48.406;9.984;2024-03-23T03:30:42;12.80;99.80
17994;DHT22;9122;48.406;9.984;2024-03-23T03:33:28;12.70;86.80
17994;DHT22;9122;48.406;9.984;2024-03-23T03:36:12;12.80;86.90
17994;DHT22;9122;48.406;9.984;2024-03-23T03:38:57;12.70;87.10
17994;DHT22;9122;48.406;9.984;2024-03-23T03:41:41;12.70;87.10
17994;DHT22;9122;48.406;9.984;2024-03-23T03:44:26;12.60;99.90
17994;DHT22;9122;48.406;9.984;2024-03-23T03:47:10;12.70;88.40
17994;DHT22;9122;48.406;9.984;2024-03-23T03:49:54;12.70;87.20
17994;DHT22;9122;48.406;9.984;2024-03-23T03:52:39;12.70;87.30
17994;DHT22;9122;48.406;9.984;2024-03-23T03:55:23;12.70;87.50
17994;DHT22;9122;48.406;9.984;2024-03-23T03:58:08;12.70;87.50
17994;DHT22;9122;48.406;9.984;2024-03-23T04:00:52;12.70;87.50
17994;DHT22;9122;48.406;9.984;2024-03-23T04:03:36;12.60;87.60
17994;DHT22;9122;48.406;9.984;2024-03-23T04:09:08;12.60;87.20
17994;DHT22;9122;48.406;9.984;2024-03-23T04:11:52;12.60;88.00
17994;DHT22;9122;48.406;9.984;2024-03-23T04:14:37;12.70;88.10
17994;DHT22;9122;48.406;9.984;2024-03-23T04:17:21;12.60;99.90
17994;DHT22;9122;48.406;9.984;2024-03-23T04:20:05;12.60;88.20
17994;DHT22;9122;48.406;9.984;2024-03-23T04:22:53;12.60;88.20
17994;DHT22;9122;48.406;9.984;2024-03-23T04:25:37;12.60;88.30
17994;DHT22;9122;48.406;9.984;2024-03-23T04:31:06;12.60;99.90
17994;DHT22;9122;48.406;9.984;2024-03-23T04:33:50;12.50;88.40
17994;DHT22;9122;48.406;9.984;2024-03-23T04:39:18;12.50;88.00
17994;DHT22;9122;48.406;9.984;2024-03-23T04:42:04;12.80;89.00
17994;DHT22;9122;48.406;9.984;2024-03-23T04:44:49;12.40;88.80
17994;DHT22;9122;48.406;9.984;2024-03-23T04:47:33;12.40;89.00
17994;DHT22;9122;48.406;9.984;2024-03-23T04:50:19;12.40;89.20
17994;DHT22;9122;48.406;9.984;2024-03-23T04:53:04;12.30;89.40
17994;DHT22;9122;48.406;9.984;2024-03-23T05:01:17;12.20;89.20
17994;DHT22;9122;48.406;9.984;2024-03-23T05:04:01;12.20;90.00
17994;DHT22;9122;48.406;9.984;2024-03-23T05:06:46;12.20;90.00
17994;DHT22;9122;48.406;9.984;2024-03-23T05:12:16;12.20;89.70
17994;DHT22;9122;48.406;9.984;2024-03-23T05:20:31;12.10;90.00
17994;DHT22;9122;48.406;9.984;2024-03-23T05:26:01;12.10;90.10
17994;DHT22;9122;48.406;9.984;2024-03-23T05:28:46;12.10;90.40
17994;DHT22;9122;48.406;9.984;2024-03-23T05:31:30;12.20;90.50
17994;DHT22;9122;48.406;9.984;2024-03-23T05:34:15;12.10;90.60
17994;DHT22;9122;48.406;9.984;2024-03-23T05:36:59;12.10;99.90
17994;DHT22;9122;48.406;9.984;2024-03-23T05:39:43;12.90;90.90
17994;DHT22;9122;48.406;9.984;2024-03-23T05:42:28;12.00;90.80
17994;DHT22;9122;48.406;9.984;2024-03-23T05:45:12;12.00;90.80
17994;DHT22;9122;48.406;9.984;2024-03-23T05:47:56;12.00;91.20
17994;DHT22;9122;48.406;9.984;2024-03-23T05:50:40;12.00;91.00
17994;DHT22;9122;48.406;9.984;2024-03-23T05:53:28;12.00;91.10
17994;DHT22;9122;48.406;9.984;2024-03-23T05:56:19;12.00;91.30
17994;DHT22;9122;48.406;9.984;2024-03-23T05:59:03;12.00;91.60
17994;DHT22;9122;48.406;9.984;2024-03-23T06:04:33;12.00;91.80
17994;DHT22;9122;48.406;9.984;2024-03-23T06:12:46;12.00;92.50
17994;DHT22;9122;48.406;9.984;2024-03-23T06:15:31;12.00;93.00
17994;DHT22;9122;48.406;9.984;2024-03-23T06:18:15;12.00;93.20
17994;DHT22;9122;48.406;9.984;2024-03-23T06:20:59;12.00;93.60
17994;DHT22;9122;48.406;9.984;2024-03-23T06:23:45;12.00;93.80
17994;DHT22;9122;48.406;9.984;2024-03-23T06:26:38;12.00;94.20
17994;DHT22;9122;48.406;9.984;2024-03-23T06:29:23;12.00;94.30
17994;DHT22;9122;48.406;9.984;2024-03-23T06:32:07;12.00;94.40
17994;DHT22;9122;48.406;9.984;2024-03-23T06:34:51;12.00;94.30
17994;DHT22;9122;48.406;9.984;2024-03-23T06:37:36;11.90;99.90
17994;DHT22;9122;48.406;9.984;2024-03-23T06:40:21;12.00;99.90
17994;DHT22;9122;48.406;9.984;2024-03-23T06:43:05;12.00;95.40
17994;DHT22;9122;48.406;9.984;2024-03-23T06:45:53;11.90;95.70
17994;DHT22;9122;48.406;9.984;2024-03-23T06:48:38;12.80;96.00
17994;DHT22;9122;48.406;9.984;2024-03-23T06:51:22;11.90;95.70
17994;DHT22;9122;48.406;9.984;2024-03-23T06:54:07;11.90;95.80
17994;DHT22;9122;48.406;9.984;2024-03-23T06:59:35;11.80;95.50
17994;DHT22;9122;48.406;9.984;2024-03-23T07:02:20;11.80;95.80
17994;DHT22;9122;48.406;9.984;2024-03-23T07:05:04;11.70;95.80
17994;DHT22;9122;48.406;9.984;2024-03-23T07:07:48;11.70;95.80
17994;DHT22;9122;48.406;9.984;2024-03-23T07:10:33;11.70;99.90
17994;DHT22;9122;48.406;9.984;2024-03-23T07:16:02;11.70;95.10
17994;DHT22;9122;48.406;9.984;2024-03-23T07:18:47;11.60;95.60
17994;DHT22;9122;48.406;9.984;2024-03-23T07:21:31;11.60;95.30
17994;DHT22;9122;48.406;9.984;2024-03-23T07:24:15;11.60;99.90
17994;DHT22;9122;48.406;9.984;2024-03-23T07:26:59;11.20;95.40
17994;DHT22;9122;48.406;9.984;2024-03-23T07:29:45;11.60;95.60
17994;DHT22;9122;48.406;9.984;2024-03-23T07:32:29;11.60;95.60
17994;DHT22;9122;48.406;9.984;2024-03-23T07:35:13;11.60;95.60
17994;DHT22;9122;48.406;9.984;2024-03-23T07:37:57;11.20;95.60
17994;DHT22;9122;48.406;9.984;2024-03-23T07:40:44;11.50;95.70
17994;DHT22;9122;48.406;9.984;2024-03-23T07:43:28;11.40;99.90
17994;DHT22;9122;48.406;9.984;2024-03-23T07:46:14;11.50;95.80
17994;DHT22;9122;48.406;9.984;2024-03-23T07:48:58;11.70;95.90
17994;DHT22;9122;48.406;9.984;2024-03-23T07:51:43;11.50;95.80
17994;DHT22;9122;48.406;9.984;2024-03-23T07:54:28;11.50;99.90
17994;DHT22;9122;48.406;9.984;2024-03-23T07:57:13;11.50;95.50
17994;DHT22;9122;48.406;9.984;2024-03-23T07:59:57;11.50;95.40
17994;DHT22;9122;48.406;9.984;2024-03-23T08:05:26;11.60;94.40
17994;DHT22;9122;48.406;9.984;2024-03-23T08:08:11;11.60;94.30
17994;DHT22;9122;48.406;9.984;2024-03-23T08:10:55;11.50;94.10
17994;DHT22;9122;48.406;9.984;2024-03-23T08:13:41;11.50;93.20
17994;DHT22;9122;48.406;9.984;2024-03-23T08:16:25;11.50;93.50
17994;DHT22;9122;48.406;9.984;2024-03-23T08:19:09;11.40;99.90
17994;DHT22;9122;48.406;9.984;2024-03-23T08:21:54;11.50;92.90
17994;DHT22;9122;48.406;9.984;2024-03-23T08:24:41;11.40;99.90
17994;DHT22;9122;48.406;9.984;2024-03-23T08:27:28;11.50;92.70
17994;DHT22;9122;48.406;9.984;2024-03-23T08:30:12;11.40;92.30
17994;DHT22;9122;48.406;9.984;2024-03-23T08:32:57;11.40;92.40
17994;DHT22;9122;48.406;9.984;2024-03-23T08:35:41;11.40;92.20
17994;DHT22;9122;48.406;9.984;2024-03-23T08:38:27;11.40;99.90
17994;DHT22;9122;48.406;9.984;2024-03-23T08:41:11;11.50;92.40
17994;DHT22;9122;48.406;9.984;2024-03-23T08:43:56;11.50;92.40
17994;DHT22;9122;48.406;9.984;2024-03-23T08:46:41;11.50;91.80
17994;DHT22;9122;48.406;9.984;2024-03-23T08:49:25;11.40;99.90
17994;DHT22;9122;48.406;9.984;2024-03-23T08:52:09;11.40;91.50
17994;DHT22;9122;48.406;9.984;2024-03-23T08:54:53;11.40;91.40
17994;DHT22;9122;48.406;9.984;2024-03-23T08:57:38;11.40;91.40
17994;DHT22;9122;48.406;9.984;2024-03-23T09:00:22;11.40;91.50
17994;DHT22;9122;48.406;9.984;2024-03-23T09:03:06;11.40;91.30
17994;DHT22;9122;48.406;9.984;2024-03-23T09:05:54;12.10;92.00
17994;DHT22;9122;48.406;9.984;2024-03-23T09:11:24;11.30;92.10
17994;DHT22;9122;48.406;9.984;2024-03-23T09:14:08;11.30;93.20
17994;DHT22;9122;48.406;9.984;2024-03-23T09:16:53;11.30;92.90
17994;DHT22;9122;48.406;9.984;2024-03-23T09:19:38;11.30;92.50
17994;DHT22;9122;48.406;9.984;2024-03-23T09:22:22;11.20;92.20
17994;DHT22;9122;48.406;9.984;2024-03-23T09:25:07;11.20;92.00
17994;DHT22;9122;48.406;9.984;2024-03-23T09:27:52;11.20;91.60
17994;DHT22;9122;48.406;9.984;2024-03-23T09:30:36;11.20;91.20
17994;DHT22;9122;48.406;9.984;2024-03-23T09:33:37;11.20;90.80
17994;DHT22;9122;48.406;9.984;2024-03-23T09:36:21;11.30;90.70
17994;DHT22;9122;48.406;9.984;2024-03-23T09:39:06;11.30;90.40
17994;DHT22;9122;48.406;9.984;2024-03-23T09:41:57;11.40;90.00
17994;DHT22;9122;48.406;9.984;2024-03-23T09:44:41;11.50;88.00
17994;DHT22;9122;48.406;9.984;2024-03-23T09:47:25;11.50;87.40
17994;DHT22;9122;48.406;9.984;2024-03-23T09:50:09;11.70;99.90
17994;DHT22;9122;48.406;9.984;2024-03-23T09:52:54;11.60;86.50
17994;DHT22;9122;48.406;9.984;2024-03-23T09:55:43;11.70;85.70
17994;DHT22;9122;48.406;9.984;2024-03-23T09:58:28;11.70;85.60
17994;DHT22;9122;48.406;9.984;2024-03-23T10:01:12;11.70;85.20
17994;DHT22;9122;48.406;9.984;2024-03-23T10:06:41;11.80;84.10
17994;DHT22;9122;48.406;9.984;2024-03-23T10:09:26;11.90;84.70
17994;DHT22;9122;48.406;9.984;2024-03-23T10:12:11;12.20;83.30
17994;DHT22;9122;48.406;9.984;2024-03-23T10:14:57;12.00;81.10
17994;DHT22;9122;48.406;9.984;2024-03-23T10:17:43;12.20;80.40
17994;DHT22;9122;48.406;9.984;2024-03-23T10:20:28;12.30;80.40
17994;DHT22;9122;48.406;9.984;2024-03-23T10:23:16;12.40;80.60
17994;DHT22;9122;48.406;9.984;2024-03-23T10:26:20;12.40;80.70
17994;DHT22;9122;48.406;9.984;2024-03-23T10:29:11;12.30;77.90
17994;DHT22;9122;48.406;9.984;2024-03-23T10:32:10;12.30;76.70
17994;DHT22;9122;48.406;9.984;2024-03-23T10:34:54;12.20;76.90
17994;DHT22;9122;48.406;9.984;2024-03-23T10:37:39;12.10;77.00
17994;DHT22;9122;48.406;9.984;2024-03-23T10:40:23;12.10;76.80
17994;DHT22;9122;48.406;9.984;2024-03-23T10:43:09;12.00;76.30
17994;DHT22;9122;48.406;9.984;2024-03-23T10:45:53;12.00;76.70
17994;DHT22;9122;48.406;9.984;2024-03-23T10:48:37;11.90;77.10
17994;DHT22;9122;48.406;9.984;2024-03-23T10:51:22;11.90;77.50
17994;DHT22;9122;48.406;9.984;2024-03-23T10:57:04;11.80;76.90
17994;DHT22;9122;48.406;9.984;2024-03-23T10:59:49;11.70;77.80
17994;DHT22;9122;48.406;9.984;2024-03-23T11:02:33;11.80;96.60
17994;DHT22;9122;48.406;9.984;2024-03-23T11:05:30;11.70;78.70
17994;DHT22;9122;48.406;9.984;2024-03-23T11:08:39;11.70;79.10
17994;DHT22;9122;48.406;9.984;2024-03-23T11:11:26;11.80;96.70
17994;DHT22;9122;48.406;9.984;2024-03-23T11:14:22;11.80;96.40
17994;DHT22;9122;48.406;9.984;2024-03-23T11:17:09;11.70;78.30
17994;DHT22;9122;48.406;9.984;2024-03-23T11:22:47;11.70;76.50
17994;DHT22;9122;48.406;9.984;2024-03-23T11:25:31;11.70;76.70
17994;DHT22;9122;48.406;9.984;2024-03-23T11:28:16;11.70;76.90
17994;DHT22;9122;48.406;9.984;2024-03-23T11:31:01;11.70;76.80
17994;DHT22;9122;48.406;9.984;2024-03-23T11:36:33;11.70;73.20
17994;DHT22;9122;48.406;9.984;2024-03-23T11:39:17;11.70;72.30
17994;DHT22;9122;48.406;9.984;2024-03-23T11:44:46;11.90;71.00
17994;DHT22;9122;48.406;9.984;2024-03-23T11:47:31;12.10;70.50
17994;DHT22;9122;48.406;9.984;2024-03-23T11:50:21;12.10;69.50
17994;DHT22;9122;48.406;9.984;2024-03-23T11:55:56;12.30;67.30
17994;DHT22;9122;48.406;9.984;2024-03-23T11:58:41;12.30;66.90
17994;DHT22;9122;48.406;9.984;2024-03-23T12:01:25;12.30;67.00
17994;DHT22;9122;48.406;9.984;2024-03-23T12:04:09;12.30;70.70
17994;DHT22;9122;48.406;9.984;2024-03-23T12:07:29;12.20;93.40
17994;DHT22;9122;48.406;9.984;2024-03-23T12:10:19;12.20;72.10
17994;DHT22;9122;48.406;9.984;2024-03-23T12:13:03;12.10;71.60
17994;DHT22;9122;48.406;9.984;2024-03-23T12:15:50;12.10;71.70
17994;DHT22;9122;48.406;9.984;2024-03-23T12:18:35;12.40;72.50
17994;DHT22;9122;48.406;9.984;2024-03-23T12:21:19;12.20;71.60
17994;DHT22;9122;48.406;9.984;2024-03-23T12:24:06;12.20;71.70
17994;DHT22;9122;48.406;9.984;2024-03-23T12:26:51;12.30;71.60
17994;DHT22;9122;48.406;9.984;2024-03-23T12:29:35;12.30;70.60
17994;DHT22;9122;48.406;9.984;2024-03-23T12:32:19;12.30;71.00
17994;DHT22;9122;48.406;9.984;2024-03-23T12:35:04;12.40;69.70
17994;DHT22;9122;48.406;9.984;2024-03-23T12:37:49;12.30;69.70
17994;DHT22;9122;48.406;9.984;2024-03-23T12:40:33;12.40;91.60
17994;DHT22;9122;48.406;9.984;2024-03-23T12:43:18;12.30;91.70
17994;DHT22;9122;48.406;9.984;2024-03-23T12:46:02;12.20;68.00
17994;DHT22;9122;48.406;9.984;2024-03-23T12:48:47;12.20;68.70
17994;DHT22;9122;48.406;9.984;2024-03-23T12:54:17;12.20;68.50
17994;DHT22;9122;48.406;9.984;2024-03-23T12:57:01;12.20;92.70
17994;DHT22;9122;48.406;9.984;2024-03-23T12:59:45;12.10;70.20
17994;DHT22;9122;48.406;9.984;2024-03-23T13:02:34;12.50;70.40
17994;DHT22;9122;48.406;9.984;2024-03-23T13:05:18;12.20;70.00
17994;DHT22;9122;48.406;9.984;2024-03-23T13:08:03;12.10;70.90
17994;DHT22;9122;48.406;9.984;2024-03-23T13:10:51;12.10;71.60
17994;DHT22;9122;48.406;9.984;2024-03-23T13:13:35;12.30;72.50
17994;DHT22;9122;48.406;9.984;2024-03-23T13:16:19;12.10;73.00
17994;DHT22;9122;48.406;9.984;2024-03-23T13:19:04;12.10;72.60
17994;DHT22;9122;48.406;9.984;2024-03-23T13:21:48;12.00;72.50
17994;DHT22;9122;48.406;9.984;2024-03-23T13:24:33;12.00;73.10
17994;DHT22;9122;48.406;9.984;2024-03-23T13:27:17;11.90;73.50
17994;DHT22;9122;48.406;9.984;2024-03-23T13:32:48;12.00;73.30
17994;DHT22;9122;48.406;9.984;2024-03-23T13:35:32;12.00;72.60
17994;DHT22;9122;48.406;9.984;2024-03-23T13:38:16;12.00;73.30
17994;DHT22;9122;48.406;9.984;2024-03-23T13:41:01;12.00;73.90
17994;DHT22;9122;48.406;9.984;2024-03-23T13:43:45;12.10;73.80
17994;DHT22;9122;48.406;9.984;2024-03-23T13:46:30;12.00;73.70
17994;DHT22;9122;48.406;9.984;2024-03-23T13:49:28;12.00;73.40
17994;DHT22;9122;48.406;9.984;2024-03-23T13:52:13;11.90;73.20
17994;DHT22;9122;48.406;9.984;2024-03-23T13:57:41;12.00;72.70
17994;DHT22;9122;48.406;9.984;2024-03-23T14:00:25;12.00;73.10
17994;DHT22;9122;48.406;9.984;2024-03-23T14:03:10;12.00;72.80
17994;DHT22;9122;48.406;9.984;2024-03-23T14:05:58;12.00;72.50
17994;DHT22;9122;48.406;9.984;2024-03-23T14:08:42;11.90;72.40
17994;DHT22;9122;48.406;9.984;2024-03-23T14:11:27;11.90;72.20
17994;DHT22;9122;48.406;9.984;2024-03-23T14:14:12;11.90;72.70
17994;DHT22;9122;48.406;9.984;2024-03-23T14:16:57;11.80;72.30
17994;DHT22;9122;48.406;9.984;2024-03-23T14:19:41;11.80;72.30
17994;DHT22;9122;48.406;9.984;2024-03-23T14:22:25;11.70;71.30
17994;DHT22;9122;48.406;9.984;2024-03-23T14:25:11;11.70;70.10
17994;DHT22;9122;48.406;9.984;2024-03-23T14:27:55;11.60;92.10
17994;DHT22;9122;48.406;9.984;2024-03-23T14:30:41;11.70;68.80
17994;DHT22;9122;48.406;9.984;2024-03-23T14:33:25;11.70;68.80
17994;DHT22;9122;48.406;9.984;2024-03-23T14:36:09;11.60;69.10
17994;DHT22;9122;48.406;9.984;2024-03-23T14:38:53;11.60;68.80
17994;DHT22;9122;48.406;9.984;2024-03-23T14:41:38;11.60;68.30
17994;DHT22;9122;48.406;9.984;2024-03-23T14:44:22;11.60;68.00
17994;DHT22;9122;48.406;9.984;2024-03-23T14:47:06;11.60;67.90
17994;DHT22;9122;48.406;9.984;2024-03-23T14:49:50;11.60;68.50
17994;DHT22;9122;48.406;9.984;2024-03-23T14:52:35;11.50;68.90
17994;DHT22;9122;48.406;9.984;2024-03-23T14:55:19;11.50;69.50
17994;DHT22;9122;48.406;9.984;2024-03-23T14:58:04;11.40;93.00
17994;DHT22;9122;48.406;9.984;2024-03-23T15:00:51;11.50;70.60
17994;DHT22;9122;48.406;9.984;2024-03-23T15:03:39;11.50;70.80
17994;DHT22;9122;48.406;9.984;2024-03-23T15:06:24;12.40;71.50
17994;DHT22;9122;48.406;9.984;2024-03-23T15:09:08;11.50;70.50
17994;DHT22;9122;48.406;9.984;2024-03-23T15:11:55;11.50;70.90
17994;DHT22;9122;48.406;9.984;2024-03-23T15:14:39;11.30;70.40
17994;DHT22;9122;48.406;9.984;2024-03-23T15:17:24;11.40;70.40
17994;DHT22;9122;48.406;9.984;2024-03-23T15:20:08;11.40;70.80
17994;DHT22;9122;48.406;9.984;2024-03-23T15:25:40;11.40;92.80
17994;DHT22;9122;48.406;9.984;2024-03-23T15:28:24;11.30;92.70
17994;DHT22;9122;48.406;9.984;2024-03-23T15:33:56;11.30;69.50
17994;DHT22;9122;48.406;9.984;2024-03-23T15:36:40;11.30;69.90
17994;DHT22;9122;48.406;9.984;2024-03-23T15:39:25;11.20;69.60
17994;DHT22;9122;48.406;9.984;2024-03-23T15:42:09;11.20;69.80
17994;DHT22;9122;48.406;9.984;2024-03-23T15:44:54;11.20;70.10
17994;DHT22;9122;48.406;9.984;2024-03-23T15:47:39;11.10;70.00
17994;DHT22;9122;48.406;9.984;2024-03-23T15:50:23;11.60;70.70
17994;DHT22;9122;48.406;9.984;2024-03-23T15:55:58;11.10;71.20
17994;DHT22;9122;48.406;9.984;2024-03-23T15:58:43;11.00;72.00
17994;DHT22;9122;48.406;9.984;2024-03-23T16:01:27;11.00;72.20
17994;DHT22;9122;48.406;9.984;2024-03-23T16:04:11;11.00;75.10
17994;DHT22;9122;48.406;9.984;2024-03-23T16:06:56;11.50;79.70
17994;DHT22;9122;48.406;9.984;2024-03-23T16:09:41;10.70;80.90
17994;DHT22;9122;48.406;9.984;2024-03-23T16:12:25;10.30;82.00
17994;DHT22;9122;48.406;9.984;2024-03-23T16:15:10;10.50;83.00
17994;DHT22;9122;48.406;9.984;2024-03-23T16:17:55;10.50;83.80
17994;DHT22;9122;48.406;9.984;2024-03-23T16:20:39;10.30;84.20
17994;DHT22;9122;48.406;9.984;2024-03-23T16:23:24;10.20;84.70
17994;DHT22;9122;48.406;9.984;2024-03-23T16:26:08;10.30;84.70
17994;DHT22;9122;48.406;9.984;2024-03-23T16:28:54;10.10;85.20
17994;DHT22;9122;48.406;9.984;2024-03-23T16:31:38;10.20;85.50
17994;DHT22;9122;48.406;9.984;2024-03-23T16:34:22;10.00;85.80
17994;DHT22;9122;48.406;9.984;2024-03-23T16:37:06;9.90;99.90
17994;DHT22;9122;48.406;9.984;2024-03-23T16:39:55;9.90;87.10
17994;DHT22;9122;48.406;9.984;2024-03-23T16:42:39;9.80;87.30
17994;DHT22;9122;48.406;9.984;2024-03-23T16:45:23;10.20;87.40
17994;DHT22;9122;48.406;9.984;2024-03-23T16:50:52;9.70;86.90
17994;DHT22;9122;48.406;9.984;2024-03-23T16:53:37;9.70;87.90
17994;DHT22;9122;48.406;9.984;2024-03-23T16:56:24;9.60;87.90
17994;DHT22;9122;48.406;9.984;2024-03-23T16:59:08;9.70;87.80
17994;DHT22;9122;48.406;9.984;2024-03-23T17:01:52;9.60;87.90
17994;DHT22;9122;48.406;9.984;2024-03-23T17:04:36;9.30;87.80
17994;DHT22;9122;48.406;9.984;2024-03-23T17:07:21;9.50;87.50
17994;DHT22;9122;48.406;9.984;2024-03-23T17:10:05;9.50;88.20
17994;DHT22;9122;48.406;9.984;2024-03-23T17:12:49;9.50;87.90
17994;DHT22;9122;48.406;9.984;2024-03-23T17:15:45;9.50;88.00
17994;DHT22;9122;48.406;9.984;2024-03-23T17:18:29;9.50;99.90
17994;DHT22;9122;48.406;9.984;2024-03-23T17:21:13;9.40;87.60
17994;DHT22;9122;48.406;9.984;2024-03-23T17:23:58;9.40;87.60
17994;DHT22;9122;48.406;9.984;2024-03-23T17:26:43;9.40;87.50
17994;DHT22;9122;48.406;9.984;2024-03-23T17:29:28;9.70;88.00
17994;DHT22;9122;48.406;9.984;2024-03-23T17:32:12;9.40;99.90
17994;DHT22;9122;48.406;9.984;2024-03-23T17:34:56;9.30;88.30
17994;DHT22;9122;48.406;9.984;2024-03-23T17:37:41;10.10;89.30
17994;DHT22;9122;48.406;9.984;2024-03-23T17:40:26;9.30;89.30
17994;DHT22;9122;48.406;9.984;2024-03-23T17:43:10;9.30;89.80
17994;DHT22;9122;48.406;9.984;2024-03-23T17:45:55;9.30;90.00
17994;DHT22;9122;48.406;9.984;2024-03-23T17:48:39;9.30;90.00
17994;DHT22;9122;48.406;9.984;2024-03-23T17:51:23;9.50;90.20
17994;DHT22;9122;48.406;9.984;2024-03-23T17:54:07;9.20;90.10
17994;DHT22;9122;48.406;9.984;2024-03-23T17:56:52;9.20;89.90
17994;DHT22;9122;48.406;9.984;2024-03-23T17:59:37;9.10;89.50
17994;DHT22;9122;48.406;9.984;2024-03-23T18:02:30;9.10;89.20
17994;DHT22;9122;48.406;9.984;2024-03-23T18:05:15;9.10;99.90
17994;DHT22;9122;48.406;9.984;2024-03-23T18:08:03;8.80;99.90
17994;DHT22;9122;48.406;9.984;2024-03-23T18:10:48;9.00;89.20
17994;DHT22;9122;48.406;9.984;2024-03-23T18:13:32;9.00;89.40
17994;DHT22;9122;48.406;9.984;2024-03-23T18:16:16;9.30;89.60
17994;DHT22;9122;48.406;9.984;2024-03-23T18:21:46;8.90;99.90
17994;DHT22;9122;48.406;9.984;2024-03-23T18:24:30;8.90;89.30
17994;DHT22;9122;48.406;9.984;2024-03-23T18:27:15;8.80;89.00
17994;DHT22;9122;48.406;9.984;2024-03-23T18:29:59;8.80;88.80
17994;DHT22;9122;48.406;9.984;2024-03-23T18:32:43;8.80;88.30
17994;DHT22;9122;48.406;9.984;2024-03-23T18:35:27;8.70;87.90
17994;DHT22;9122;48.406;9.984;2024-03-23T18:38:11;8.70;87.90
17994;DHT22;9122;48.406;9.984;2024-03-23T18:43:41;8.60;86.80
17994;DHT22;9122;48.406;9.984;2024-03-23T18:46:29;9.80;88.00
17994;DHT22;9122;48.406;9.984;2024-03-23T18:49:13;8.50;86.80
17994;DHT22;9122;48.406;9.984;2024-03-23T18:51:58;9.00;86.90
17994;DHT22;9122;48.406;9.984;2024-03-23T18:54:42;8.50;86.60
17994;DHT22;9122;48.406;9.984;2024-03-23T18:57:26;8.50;86.80
17994;DHT22;9122;48.406;9.984;2024-03-23T19:00:11;8.50;86.60
17994;DHT22;9122;48.406;9.984;2024-03-23T19:02:56;8.50;86.80
17994;DHT22;9122;48.406;9.984;2024-03-23T19:05:41;8.40;99.90
17994;DHT22;9122;48.406;9.984;2024-03-23T19:08:25;9.00;86.20
17994;DHT22;9122;48.406;9.984;2024-03-23T19:11:10;8.90;86.40
17994;DHT22;9122;48.406;9.984;2024-03-23T19:13:54;8.40;86.40
17994;DHT22;9122;48.406;9.984;2024-03-23T19:16:39;8.40;85.90
17994;DHT22;9122;48.406;9.984;2024-03-23T19:19:23;8.40;86.80
17994;DHT22;9122;48.406;9.984;2024-03-23T19:22:07;8.40;86.90
17994;DHT22;9122;48.406;9.984;2024-03-23T19:24:52;8.40;87.10
17994;DHT22;9122;48.406;9.984;2024-03-23T19:27:37;8.40;99.90
17994;DHT22;9122;48.406;9.984;2024-03-23T19:30:25;8.30;87.30
17994;DHT22;9122;48.406;9.984;2024-03-23T19:33:09;8.50;87.40
17994;DHT22;9122;48.406;9.984;2024-03-23T19:35:58;8.20;87.50
17994;DHT22;9122;48.406;9.984;2024-03-23T19:38:42;8.20;87.40
17994;DHT22;9122;48.406;9.984;2024-03-23T19:41:26;8.20;87.70
17994;DHT22;9122;48.406;9.984;2024-03-23T19:46:55;8.20;86.80
17994;DHT22;9122;48.406;9.984;2024-03-23T19:49:40;8.30;87.70
17994;DHT22;9122;48.406;9.984;2024-03-23T19:52:25;8.10;99.90
17994;DHT22;9122;48.406;9.984;2024-03-23T19:55:09;7.70;87.30
17994;DHT22;9122;48.406;9.984;2024-03-23T19:57:53;8.00;99.90
17994;DHT22;9122;48.406;9.984;2024-03-23T20:03:22;8.00;86.30
17994;DHT22;9122;48.406;9.984;2024-03-23T20:06:06;8.00;86.90
17994;DHT22;9122;48.406;9.984;2024-03-23T20:08:52;8.90;87.50
17994;DHT22;9122;48.406;9.984;2024-03-23T20:11:39;7.90;86.90
17994;DHT22;9122;48.406;9.984;2024-03-23T20:14:24;7.80;86.80
17994;DHT22;9122;48.406;9.984;2024-03-23T20:17:09;7.60;86.90
17994;DHT22;9122;48.406;9.984;2024-03-23T20:19:53;7.80;99.90
17994;DHT22;9122;48.406;9.984;2024-03-23T20:22:37;7.90;87.40
17994;DHT22;9122;48.406;9.984;2024-03-23T20:25:23;9.10;88.50
17994;DHT22;9122;48.406;9.984;2024-03-23T20:28:09;7.80;88.10
17994;DHT22;9122;48.406;9.984;2024-03-23T20:31:01;7.80;89.00
17994;DHT22;9122;48.406;9.984;2024-03-23T20:33:46;7.80;89.70